createdAt,value
2023-01-04T00:00:52.190Z,20.27
2023-01-04T00:03:18.929Z,20.58
2023-01-04T00:05:45.571Z,19.08
2023-01-04T00:08:12.133Z,20.42
2023-01-04T00:10:38.639Z,20.83
2023-01-04T00:13:05.221Z,18.77
2023-01-04T00:15:31.915Z,20.23
2023-01-04T00:17:58.607Z,18.55
2023-01-04T00:20:25.269Z,19.77
2023-01-04T00:22:51.915Z,20.73
2023-01-04T00:25:18.529Z,22.42
2023-01-04T00:27:45.091Z,19.80
2023-01-04T00:30:12.051Z,21.02
2023-01-04T00:32:38.538Z,19.58
2023-01-04T00:35:05.700Z,20.40
2023-01-04T00:37:32.297Z,20.77
2023-01-04T00:39:58.820Z,19.17
2023-01-04T00:42:25.472Z,19.20
2023-01-04T00:44:52.073Z,19.88
2023-01-04T00:47:18.581Z,16.77
2023-01-04T00:49:45.248Z,17.90
2023-01-04T00:52:11.842Z,19.85
2023-01-04T00:54:38.384Z,18.08
2023-01-04T00:57:05.474Z,18.23
2023-01-04T00:59:32.056Z,19.75
2023-01-04T01:01:58.749Z,17.58
2023-01-04T01:04:26.035Z,17.00
2023-01-04T01:06:53.038Z,16.95
2023-01-04T01:09:22.907Z,19.00
2023-01-04T01:11:50.466Z,18.65
2023-01-04T01:14:20.200Z,18.50
2023-01-04T01:16:56.604Z,14.38
2023-01-04T01:19:25.280Z,17.90
2023-01-04T01:21:51.785Z,22.27
2023-01-04T01:24:19.365Z,15.02
2023-01-04T01:26:46.549Z,18.27
2023-01-04T01:29:13.159Z,18.70
2023-01-04T01:31:40.815Z,17.13
2023-01-04T01:34:07.558Z,18.38
2023-01-04T01:36:34.072Z,13.90
2023-01-04T01:39:00.658Z,17.50
2023-01-04T01:41:30.900Z,15.95
2023-01-04T01:44:09.908Z,14.65
2023-01-04T01:46:50.097Z,14.88
2023-01-04T01:49:28.383Z,16.42
2023-01-04T01:51:57.901Z,17.42
2023-01-04T01:54:29.240Z,19.08
2023-01-04T01:57:00.345Z,14.32
2023-01-04T01:59:28.673Z,15.82
2023-01-04T02:04:31.061Z,14.73
2023-01-04T02:06:58.856Z,16.80
2023-01-04T02:09:25.814Z,15.90
2023-01-04T02:11:52.522Z,14.98
2023-01-04T02:14:27.059Z,14.00
2023-01-04T02:16:56.789Z,15.05
2023-01-04T02:19:45.040Z,16.80
2023-01-04T02:22:35.921Z,15.60
2023-01-04T02:25:30.172Z,15.07
2023-01-04T02:28:06.943Z,13.32
2023-01-04T02:30:55.338Z,14.35
2023-01-04T02:33:22.007Z,13.15
2023-01-04T02:36:06.520Z,13.60
2023-01-04T02:38:57.708Z,15.00
2023-01-04T02:41:37.318Z,12.82
2023-01-04T02:44:28.706Z,16.40
2023-01-04T02:47:16.755Z,15.25
2023-01-04T02:50:05.017Z,18.38
2023-01-04T02:52:33.070Z,15.38
2023-01-04T02:55:08.223Z,13.18
2023-01-04T02:57:50.726Z,15.25
2023-01-04T03:01:07.684Z,16.17
2023-01-04T03:04:06.008Z,13.88
2023-01-04T03:06:43.917Z,12.98
2023-01-04T03:09:23.410Z,14.23
2023-01-04T03:12:15.255Z,15.90
2023-01-04T03:14:52.070Z,13.65
2023-01-04T03:17:22.531Z,12.38
2023-01-04T03:19:55.048Z,13.95
2023-01-04T03:23:03.384Z,11.82
2023-01-04T03:25:54.031Z,13.38
2023-01-04T03:28:43.561Z,13.02
2023-01-04T03:31:40.032Z,13.57
2023-01-04T03:34:25.421Z,12.18
2023-01-04T03:37:04.186Z,11.95
2023-01-04T03:40:13.420Z,11.45
2023-01-04T03:43:02.554Z,11.32
2023-01-04T03:45:58.741Z,11.80
2023-01-04T03:48:35.103Z,9.90
2023-01-04T03:51:09.882Z,13.02
2023-01-04T03:53:43.433Z,11.32
2023-01-04T03:56:11.262Z,11.10
2023-01-04T03:58:38.708Z,11.52
2023-01-04T04:01:06.276Z,13.85
2023-01-04T04:03:51.942Z,11.40
2023-01-04T04:06:36.987Z,12.68
2023-01-04T04:09:04.607Z,11.38
2023-01-04T04:11:31.207Z,12.25
2023-01-04T04:13:59.352Z,12.07
2023-01-04T04:16:26.993Z,13.10
2023-01-04T04:18:53.845Z,10.45
2023-01-04T04:21:20.455Z,12.30
2023-01-04T04:23:47.255Z,11.60
2023-01-04T04:26:14.066Z,14.40
2023-01-04T04:28:41.395Z,12.57
2023-01-04T04:31:08.323Z,9.80
2023-01-04T04:33:34.976Z,10.02
2023-01-04T04:36:01.486Z,10.93
2023-01-04T04:38:28.299Z,11.50
2023-01-04T04:41:13.440Z,12.93
2023-01-04T04:43:40.140Z,15.75
2023-01-04T04:46:06.857Z,9.68
2023-01-04T04:48:33.522Z,10.52
2023-01-04T04:51:00.240Z,10.30
2023-01-04T04:53:26.866Z,12.32
2023-01-04T04:55:54.435Z,10.27
2023-01-04T04:58:21.707Z,12.05
2023-01-04T05:00:48.241Z,13.90
2023-01-04T05:03:15.097Z,15.00
2023-01-04T05:05:42.532Z,13.57
2023-01-04T05:08:09.321Z,16.77
2023-01-04T05:10:37.869Z,12.95
2023-01-04T05:13:07.480Z,14.82
2023-01-04T05:15:36.695Z,16.50
2023-01-04T05:18:04.448Z,13.13
2023-01-04T05:20:31.259Z,14.50
2023-01-04T05:22:57.812Z,18.83
2023-01-04T05:25:24.703Z,16.95
2023-01-04T05:27:51.315Z,19.40
2023-01-04T05:30:36.967Z,15.50
2023-01-04T05:33:04.603Z,19.17
2023-01-04T05:35:31.687Z,19.63
2023-01-04T05:37:58.431Z,22.90
2023-01-04T05:40:25.361Z,18.65
2023-01-04T05:42:51.960Z,15.75
2023-01-04T05:45:21.111Z,14.18
2023-01-04T05:47:52.289Z,16.48
2023-01-04T05:50:23.073Z,14.77
2023-01-04T05:52:50.448Z,15.93
2023-01-04T05:55:17.327Z,16.13
2023-01-04T05:57:43.872Z,17.73
2023-01-04T06:00:12.193Z,18.20
2023-01-04T06:02:39.405Z,19.17
2023-01-04T06:05:06.835Z,19.58
2023-01-04T06:07:33.817Z,18.83
2023-01-04T06:10:00.464Z,20.23
2023-01-04T06:12:27.017Z,17.58
2023-01-04T06:14:53.667Z,17.00
2023-01-04T06:17:20.586Z,18.30
2023-01-04T06:19:47.235Z,18.08
2023-01-04T06:22:13.791Z,22.75
2023-01-04T06:24:40.521Z,19.38
2023-01-04T06:27:07.100Z,19.33
2023-01-04T06:29:33.639Z,20.55
2023-01-04T06:32:00.455Z,20.55
2023-01-04T06:34:30.884Z,18.65
2023-01-04T06:36:58.507Z,19.30
2023-01-04T06:39:25.250Z,19.15
2023-01-04T06:41:51.788Z,21.98
2023-01-04T06:44:18.364Z,19.27
2023-01-04T06:46:45.076Z,21.20
2023-01-04T06:49:11.596Z,21.02
2023-01-04T06:51:38.081Z,21.30
2023-01-04T06:54:04.722Z,20.85
2023-01-04T06:56:32.276Z,20.90
2023-01-04T06:58:59.013Z,23.00
2023-01-04T07:01:26.270Z,21.40
2023-01-04T07:03:52.875Z,21.60
2023-01-04T07:06:19.408Z,24.65
2023-01-04T07:08:46.021Z,24.33
2023-01-04T07:11:12.591Z,25.50
2023-01-04T07:13:39.106Z,25.67
2023-01-04T07:16:06.115Z,24.15
2023-01-04T07:18:32.887Z,27.50
2023-01-04T07:20:59.405Z,29.55
2023-01-04T07:23:26.170Z,25.77
2023-01-04T07:25:52.871Z,28.13
2023-01-04T07:28:39.457Z,25.58
2023-01-04T07:31:07.525Z,25.85
2023-01-04T07:33:34.284Z,25.45
2023-01-04T07:36:05.337Z,33.47
2023-01-04T07:38:33.520Z,25.52
2023-01-04T07:41:00.099Z,24.08
2023-01-04T07:43:28.527Z,27.23
2023-01-04T07:45:55.775Z,27.67
2023-01-04T07:48:22.421Z,24.75
2023-01-04T07:50:50.230Z,28.25
2023-01-04T07:53:16.908Z,28.48
2023-01-04T07:55:43.478Z,26.58
2023-01-04T07:58:10.194Z,27.85
2023-01-04T08:00:36.813Z,25.63
2023-01-04T08:03:03.681Z,29.63
2023-01-04T08:05:34.952Z,28.75
2023-01-04T08:08:01.939Z,25.27
2023-01-04T08:10:28.800Z,30.45
2023-01-04T08:12:58.002Z,30.48
2023-01-04T08:15:24.508Z,29.67
2023-01-04T08:17:51.175Z,29.67
2023-01-04T08:20:18.398Z,28.33
2023-01-04T08:22:44.966Z,27.08
2023-01-04T08:25:11.620Z,24.88
2023-01-04T08:27:38.219Z,23.67
2023-01-04T08:30:05.454Z,26.58
2023-01-04T08:32:32.086Z,24.42
2023-01-04T08:34:58.744Z,23.90
2023-01-04T08:37:25.228Z,23.20
2023-01-04T08:39:51.900Z,25.75
2023-01-04T08:42:25.086Z,22.45
2023-01-04T08:44:59.731Z,24.52
2023-01-04T08:47:28.176Z,24.08
2023-01-04T08:49:54.956Z,24.17
2023-01-04T08:52:21.760Z,24.75
2023-01-04T08:54:49.406Z,21.60
2023-01-04T08:57:16.846Z,22.77
2023-01-04T08:59:43.492Z,24.83
2023-01-04T09:02:25.844Z,22.15
2023-01-04T09:04:52.745Z,21.27
2023-01-04T09:07:19.543Z,22.38
2023-01-04T09:09:46.192Z,23.23
2023-01-04T09:12:12.797Z,22.80
2023-01-04T09:14:39.399Z,21.58
2023-01-04T09:17:06.029Z,21.02
2023-01-04T09:19:32.695Z,23.80
2023-01-04T09:21:59.566Z,22.48
2023-01-04T09:24:26.248Z,24.58
2023-01-04T09:26:52.996Z,27.75
2023-01-04T09:29:19.541Z,27.65
2023-01-04T09:31:46.514Z,28.83
2023-01-04T09:34:16.463Z,29.40
2023-01-04T09:36:45.364Z,24.42
2023-01-04T09:39:21.133Z,28.83
2023-01-04T09:41:56.980Z,27.60
2023-01-04T09:45:11.905Z,28.98
2023-01-04T09:47:35.503Z,38.28
2023-01-04T09:50:13.155Z,30.38
2023-01-04T09:52:58.362Z,30.80
2023-01-04T09:55:39.756Z,28.63
2023-01-04T09:58:13.038Z,29.63
2023-01-04T10:00:46.870Z,29.98
2023-01-04T10:03:21.222Z,28.23
2023-01-04T10:05:48.618Z,25.13
2023-01-04T10:08:19.990Z,27.70
2023-01-04T10:10:54.280Z,28.48
2023-01-04T10:13:57.752Z,24.05
2023-01-04T10:21:12.870Z,24.80
2023-01-04T10:22:33.967Z,22.00
2023-01-04T10:25:19.382Z,23.05
2023-01-04T10:28:13.979Z,17.33
2023-01-04T10:30:53.129Z,18.65
2023-01-04T10:33:29.201Z,19.02
2023-01-04T10:35:56.068Z,17.70
2023-01-04T10:38:36.583Z,19.80
2023-01-04T10:41:10.534Z,18.25
2023-01-04T10:44:11.867Z,19.30
2023-01-04T10:46:40.625Z,19.17
2023-01-04T10:49:20.921Z,20.80
2023-01-04T10:51:56.559Z,19.80
2023-01-04T10:54:39.380Z,17.60
2023-01-04T10:57:07.112Z,19.75
2023-01-04T11:00:24.341Z,21.52
2023-01-04T11:03:08.293Z,16.75
2023-01-04T11:05:43.505Z,22.33
2023-01-04T11:08:20.859Z,17.42
2023-01-04T11:13:24.302Z,21.20
2023-01-04T11:15:52.236Z,19.48
2023-01-04T11:18:19.443Z,21.58
2023-01-04T11:20:46.088Z,19.17
2023-01-04T11:23:17.931Z,18.40
2023-01-04T11:25:57.032Z,23.20
2023-01-04T11:28:28.856Z,21.33
2023-01-04T11:31:28.931Z,19.42
2023-01-04T11:33:55.523Z,17.52
2023-01-04T11:36:31.188Z,22.45
2023-01-04T11:38:58.691Z,16.23
2023-01-04T11:41:26.678Z,20.55
2023-01-04T11:44:06.381Z,18.85
2023-01-04T11:46:35.069Z,19.52
2023-01-04T11:49:01.680Z,17.98
2023-01-04T11:51:30.824Z,15.98
2023-01-04T11:54:01.713Z,12.32
2023-01-04T11:56:30.027Z,12.15
2023-01-04T11:59:12.733Z,12.18
2023-01-04T12:01:45.235Z,11.68
2023-01-04T12:04:13.673Z,13.30
2023-01-04T12:06:50.935Z,15.00
2023-01-04T12:11:59.324Z,12.20
2023-01-04T12:14:28.153Z,14.02
2023-01-04T12:17:05.328Z,14.15
2023-01-04T12:19:32.102Z,11.68
2023-01-04T12:22:01.830Z,12.57
2023-01-04T12:24:34.042Z,16.25
2023-01-04T12:27:01.620Z,14.50
2023-01-04T12:29:42.896Z,13.77
2023-01-04T12:32:12.410Z,16.45
2023-01-04T12:34:42.284Z,16.10
2023-01-04T12:37:10.065Z,13.65
2023-01-04T12:39:47.528Z,16.80
2023-01-04T12:42:21.299Z,11.85
2023-01-04T12:44:47.935Z,13.13
2023-01-04T12:47:39.620Z,12.63
2023-01-04T12:50:18.961Z,13.88
2023-01-04T12:55:44.235Z,12.63
2023-01-04T12:59:23.626Z,15.90
2023-01-04T13:01:25.481Z,13.32
2023-01-04T13:04:02.443Z,16.95
2023-01-04T13:06:35.974Z,15.10
2023-01-04T13:09:02.715Z,19.00
2023-01-04T13:12:03.825Z,17.58
2023-01-04T13:14:38.095Z,17.20
2023-01-04T13:17:15.965Z,19.25
2023-01-04T13:19:44.055Z,17.52
2023-01-04T13:22:16.974Z,15.98
2023-01-04T13:24:44.525Z,17.17
2023-01-04T13:27:20.330Z,19.42
2023-01-04T13:29:48.396Z,14.38
2023-01-04T13:32:23.932Z,14.95
2023-01-04T13:35:01.069Z,14.30
2023-01-04T13:37:56.961Z,15.75
2023-01-04T13:40:29.081Z,15.80
2023-01-04T13:43:05.655Z,14.82
2023-01-04T13:45:42.416Z,16.70
2023-01-04T13:48:19.382Z,15.82
2023-01-04T13:50:58.673Z,15.10
2023-01-04T13:53:27.706Z,15.93
2023-01-04T13:56:03.053Z,15.23
2023-01-04T13:58:31.941Z,14.77
2023-01-04T14:01:01.445Z,17.48
2023-01-04T14:03:40.771Z,15.70
2023-01-04T14:06:10.102Z,18.67
2023-01-04T14:08:40.550Z,12.82
2023-01-04T14:11:46.428Z,17.00
2023-01-04T14:14:55.752Z,19.88
2023-01-04T14:17:28.813Z,16.30
2023-01-04T14:20:06.579Z,17.27
2023-01-04T14:22:33.179Z,17.42
2023-01-04T14:25:21.030Z,17.10
2023-01-04T14:27:47.972Z,16.77
2023-01-04T14:30:20.503Z,16.02
2023-01-04T14:33:02.889Z,15.60
2023-01-04T14:35:30.263Z,14.38
2023-01-04T14:38:05.719Z,16.67
2023-01-04T14:40:32.773Z,15.30
2023-01-04T14:42:59.335Z,14.80
2023-01-04T14:45:26.064Z,18.75
2023-01-04T14:47:52.581Z,14.75
2023-01-04T14:50:19.193Z,14.40
2023-01-04T14:52:53.275Z,13.02
2023-01-04T14:55:20.951Z,10.55
2023-01-04T14:57:47.497Z,14.35
2023-01-04T15:00:19.481Z,14.68
2023-01-04T15:02:50.340Z,12.07
2023-01-04T15:05:20.473Z,15.57
2023-01-04T15:07:47.224Z,15.00
2023-01-04T15:10:26.515Z,14.75
2023-01-04T15:12:54.065Z,15.32
2023-01-04T15:15:21.242Z,14.32
2023-01-04T15:17:48.418Z,13.90
2023-01-04T15:20:15.091Z,13.85
2023-01-04T15:22:41.894Z,13.30
2023-01-04T15:25:09.803Z,17.10
2023-01-04T15:27:41.922Z,15.15
2023-01-04T15:30:13.447Z,16.88
2023-01-04T15:32:40.184Z,15.40
2023-01-04T15:35:07.030Z,12.65
2023-01-04T15:37:33.790Z,16.95
2023-01-04T15:40:03.322Z,16.02
2023-01-04T15:42:49.860Z,15.88
2023-01-04T15:45:16.745Z,16.05
2023-01-04T15:47:43.419Z,16.80
2023-01-04T15:50:10.095Z,15.43
2023-01-04T15:52:36.765Z,19.17
2023-01-04T15:55:03.588Z,14.88
2023-01-04T15:57:30.469Z,19.58
2023-01-04T15:59:57.225Z,16.27
2023-01-04T16:02:23.936Z,16.25
2023-01-04T16:04:50.824Z,19.10
2023-01-04T16:07:18.280Z,15.88
2023-01-04T16:09:44.956Z,16.83
2023-01-04T16:12:30.045Z,15.85
2023-01-04T16:14:56.665Z,20.27
2023-01-04T16:17:23.186Z,15.75
2023-01-04T16:19:49.760Z,14.80
2023-01-04T16:22:16.332Z,17.92
2023-01-04T16:25:09.727Z,19.73
2023-01-04T16:27:35.487Z,14.95
2023-01-04T16:30:03.948Z,17.90
2023-01-04T16:32:30.956Z,16.30
2023-01-04T16:34:57.684Z,15.98
2023-01-04T16:37:29.074Z,18.83
2023-01-04T16:40:11.111Z,13.80
2023-01-04T16:42:38.836Z,16.23
2023-01-04T16:45:06.149Z,15.25
2023-01-04T16:47:40.549Z,14.30
2023-01-04T16:50:07.398Z,15.85
2023-01-04T16:52:33.906Z,15.48
2023-01-04T16:55:00.551Z,16.33
2023-01-04T16:57:29.292Z,15.75
2023-01-04T16:59:56.178Z,16.83
2023-01-04T17:02:23.569Z,13.60
2023-01-04T17:04:55.380Z,15.77
2023-01-04T17:07:22.177Z,16.75
2023-01-04T17:09:52.070Z,16.17
2023-01-04T17:17:52.685Z,17.00
2023-01-04T17:20:19.379Z,14.05
2023-01-04T17:22:45.905Z,15.60
2023-01-04T17:25:12.522Z,16.67
2023-01-04T17:27:39.235Z,17.38
2023-01-04T17:30:06.319Z,15.77
2023-01-04T17:32:32.847Z,14.93
2023-01-04T17:34:59.560Z,16.90
2023-01-04T17:37:26.522Z,18.10
2023-01-04T17:39:53.370Z,19.83
2023-01-04T17:42:20.110Z,15.80
2023-01-04T17:44:48.119Z,15.68
2023-01-04T17:47:14.685Z,15.95
2023-01-04T17:49:41.543Z,19.77
2023-01-04T17:52:08.955Z,18.17
2023-01-04T17:54:36.297Z,17.05
2023-01-04T17:57:03.283Z,102.20
2023-01-04T17:59:29.775Z,35.67
2023-01-04T18:01:56.378Z,31.05
2023-01-04T18:04:23.135Z,19.30
2023-01-04T18:06:49.663Z,18.00
2023-01-04T18:09:20.209Z,23.13
2023-01-04T18:11:49.187Z,21.10
2023-01-04T18:14:15.797Z,17.52
2023-01-04T18:16:58.471Z,15.35
2023-01-04T18:19:27.902Z,18.58
2023-01-04T18:21:55.174Z,19.67
2023-01-04T18:24:39.047Z,21.35
2023-01-04T18:27:25.430Z,20.45
2023-01-04T18:29:53.814Z,20.60
2023-01-04T18:32:21.433Z,18.38
2023-01-04T18:34:47.964Z,18.55
2023-01-04T18:37:16.423Z,18.38
2023-01-04T18:39:43.256Z,17.65
2023-01-04T18:42:09.771Z,18.98
2023-01-04T18:44:38.641Z,21.92
2023-01-04T18:47:07.733Z,19.60
2023-01-04T18:49:34.268Z,20.55
2023-01-04T18:52:01.045Z,20.98
2023-01-04T18:54:27.643Z,21.35
2023-01-04T18:57:00.454Z,20.48
2023-01-04T18:59:31.343Z,27.02
2023-01-04T19:02:01.303Z,19.67
2023-01-04T19:04:30.388Z,19.23
2023-01-04T19:06:57.446Z,22.45
2023-01-04T19:09:24.249Z,21.08
2023-01-04T19:11:50.894Z,21.52
2023-01-04T19:14:17.760Z,21.63
2023-01-04T19:16:44.638Z,23.05
2023-01-04T19:19:11.452Z,22.05
2023-01-04T19:21:38.276Z,20.15
2023-01-04T19:24:05.051Z,22.25
2023-01-04T19:26:31.629Z,27.65
2023-01-04T19:28:58.412Z,21.88
2023-01-04T19:31:24.913Z,22.70
2023-01-04T19:33:51.408Z,23.08
2023-01-04T19:36:19.106Z,26.23
2023-01-04T19:38:46.119Z,25.00
2023-01-04T19:41:21.128Z,26.80
2023-01-04T19:43:48.307Z,25.92
2023-01-04T19:46:15.429Z,21.77
2023-01-04T19:48:42.660Z,24.88
2023-01-04T19:51:12.026Z,23.83
2023-01-04T19:53:40.767Z,20.13
2023-01-04T19:56:08.477Z,24.23
2023-01-04T19:58:36.681Z,24.58
2023-01-04T20:01:03.890Z,29.45
2023-01-04T20:03:30.809Z,25.83
2023-01-04T20:06:03.335Z,21.63
2023-01-04T20:08:29.903Z,23.15
2023-01-04T20:10:58.351Z,21.98
2023-01-04T20:13:26.534Z,23.70
2023-01-04T20:15:53.192Z,24.70
2023-01-04T20:18:20.936Z,25.13
2023-01-04T20:20:47.759Z,27.92
2023-01-04T20:23:15.053Z,28.45
2023-01-04T20:25:43.923Z,27.15
2023-01-04T20:28:10.796Z,26.80
2023-01-04T20:30:37.851Z,22.05
2023-01-04T20:33:05.300Z,23.92
2023-01-04T20:35:31.871Z,23.05
2023-01-04T20:37:59.036Z,24.13
2023-01-04T20:40:27.036Z,22.05
2023-01-04T20:43:12.536Z,23.52
2023-01-04T20:45:47.374Z,20.08
2023-01-04T20:48:15.336Z,21.15
2023-01-04T20:50:42.356Z,25.55
2023-01-04T20:53:09.680Z,22.77
2023-01-04T20:55:44.189Z,26.48
2023-01-04T20:58:13.292Z,26.60
2023-01-04T21:00:41.027Z,24.02
2023-01-04T21:03:09.655Z,24.00
2023-01-04T21:05:42.498Z,27.67
2023-01-04T21:08:09.223Z,25.80
2023-01-04T21:10:39.416Z,26.08
2023-01-04T21:13:07.105Z,25.85
2023-01-04T21:15:35.003Z,25.77
2023-01-04T21:18:01.595Z,25.05
2023-01-04T21:20:28.324Z,25.83
2023-01-04T21:22:54.821Z,26.35
2023-01-04T21:25:21.358Z,27.20
2023-01-04T21:27:48.156Z,26.60
2023-01-04T21:30:14.907Z,23.90
2023-01-04T21:32:41.401Z,27.60
2023-01-04T21:35:08.574Z,29.27
2023-01-04T21:37:35.126Z,29.30
2023-01-04T21:40:01.621Z,29.30
2023-01-04T21:42:28.456Z,33.50
2023-01-04T21:44:55.008Z,28.70
2023-01-04T21:47:21.523Z,27.38
2023-01-04T21:49:48.196Z,30.13
2023-01-04T21:52:14.752Z,29.83
2023-01-04T21:54:41.281Z,28.38
2023-01-04T21:57:08.251Z,32.58
2023-01-04T21:59:35.472Z,24.85
2023-01-04T22:02:02.170Z,29.38
2023-01-04T22:04:29.123Z,25.50
2023-01-04T22:06:55.665Z,33.50
2023-01-04T22:09:22.343Z,27.00
2023-01-04T22:11:50.326Z,27.30
2023-01-04T22:14:18.156Z,25.77
2023-01-04T22:16:44.965Z,29.45
2023-01-04T22:19:12.931Z,26.58
2023-01-04T22:21:39.903Z,30.30
2023-01-04T22:24:07.854Z,30.10
2023-01-04T22:26:34.527Z,28.83
2023-01-04T22:29:01.516Z,27.33
2023-01-04T22:31:28.323Z,33.65
2023-01-04T22:33:55.157Z,28.02
2023-01-04T22:36:23.547Z,28.00
2023-01-04T22:38:55.422Z,28.08
2023-01-04T22:41:24.224Z,26.50
2023-01-04T22:44:06.863Z,27.63
2023-01-04T22:46:35.033Z,21.88
2023-01-04T22:49:02.533Z,23.98
2023-01-04T22:51:30.589Z,25.63
2023-01-04T22:53:59.278Z,25.20
2023-01-04T22:56:26.986Z,24.20
2023-01-04T22:58:55.709Z,29.08
2023-01-04T23:01:31.287Z,24.40
2023-01-04T23:03:59.876Z,26.77
2023-01-04T23:06:27.610Z,24.77
2023-01-04T23:08:59.494Z,28.35
2023-01-04T23:11:28.084Z,27.15
2023-01-04T23:13:54.837Z,28.25
2023-01-04T23:16:26.279Z,25.73
2023-01-04T23:18:56.656Z,27.08
2023-01-04T23:21:23.561Z,26.25
2023-01-04T23:23:50.925Z,26.60
2023-01-04T23:26:20.924Z,25.90
2023-01-04T23:28:48.324Z,25.17
2023-01-04T23:31:17.481Z,23.77
2023-01-04T23:33:44.405Z,28.02
2023-01-04T23:36:20.105Z,27.48
2023-01-04T23:38:52.313Z,29.80
2023-01-04T23:41:19.468Z,27.55
2023-01-04T23:43:46.000Z,24.58
2023-01-04T23:46:17.405Z,27.30
2023-01-04T23:48:44.512Z,28.45
2023-01-04T23:51:14.877Z,29.20
2023-01-04T23:53:41.424Z,25.90
2023-01-04T23:56:14.136Z,27.58
2023-01-04T23:58:40.746Z,28.00
